Time;durP1;ratioP1;P1;durP2;ratioP2;P2;SDS_P1;SDS_P2;PMS_P1;PMS_P2;Temp;Humidity;BMP_temperature;BMP_pressure;BME280_temperature;BME280_humidity;BME280_pressure;Samples;Min_cycle;Max_cycle;Signal;HPM_P1;HPM_P2
2022/04/25 00:00:24;;;;;;;14.88;6.70;;;;;;;6.62;nan;99195.88;10360518;28;20056;-75
2022/04/25 00:05:25;;;;;;;19.20;7.57;;;;;;;6.60;nan;99189.81;10354652;28;20888;-75
2022/04/25 00:10:27;;;;;;;18.08;7.10;;;;;;;6.51;nan;99160.28;10350712;28;20037;-76
2022/04/25 00:15:29;;;;;;;16.08;7.13;;;;;;;6.55;nan;99177.66;10363601;28;20049;-75
2022/04/25 00:20:31;;;;;;;15.73;7.00;;;;;;;6.58;nan;99191.56;10369984;28;20049;-75
2022/04/25 00:25:35;;;;;;;13.75;6.90;;;;;;;6.63;nan;99210.66;10366522;28;20487;-75
2022/04/25 00:30:37;;;;;;;18.02;7.55;;;;;;;6.65;nan;99214.13;10357949;28;20050;-75
2022/04/25 00:35:38;;;;;;;17.67;6.75;;;;;;;6.64;nan;99220.19;10357072;28;20631;-75
2022/04/25 00:40:41;;;;;;;19.85;7.63;;;;;;;6.69;nan;99241.91;10369873;28;20042;-76
2022/04/25 00:45:43;;;;;;;16.77;7.85;;;;;;;6.62;nan;99215.00;10356352;28;20048;-75
2022/04/25 00:50:45;;;;;;;13.65;7.32;;;;;;;6.65;nan;99227.13;10356174;28;20056;-75
2022/04/25 00:55:47;;;;;;;18.50;7.10;;;;;;;6.69;nan;99249.72;10355525;28;20040;-75
2022/04/25 01:00:49;;;;;;;16.67;7.07;;;;;;;6.69;nan;99258.38;10359421;28;20056;-76
2022/04/25 01:05:52;;;;;;;21.38;7.22;;;;;;;6.68;nan;99242.75;10353269;28;20044;-75
2022/04/25 01:10:55;;;;;;;17.30;7.35;;;;;;;6.67;nan;99251.44;10359441;28;20049;-76
2022/04/25 01:15:57;;;;;;;18.95;7.93;;;;;;;6.62;nan;99235.78;10359161;28;20106;-75
2022/04/25 01:21:00;;;;;;;14.55;7.10;;;;;;;6.67;nan;99254.03;10350634;28;20058;-75
2022/04/25 01:31:22;;;;;;;21.10;8.30;;;;;;;6.75;nan;99296.59;10366401;28;20454;-75
2022/04/25 01:36:24;;;;;;;17.63;7.60;;;;;;;6.74;nan;99294.84;10355342;28;20056;-75
2022/04/25 01:41:26;;;;;;;21.73;8.40;;;;;;;6.77;nan;99302.69;10354212;28;20484;-75
2022/04/25 01:46:27;;;;;;;15.52;7.63;;;;;;;6.76;nan;99311.34;10371386;28;20069;-75
2022/04/25 01:51:30;;;;;;;15.63;7.65;;;;;;;6.73;nan;99291.38;10353666;28;20137;-75
2022/04/25 01:56:32;;;;;;;15.73;8.05;;;;;;;6.76;nan;99307.88;10355039;28;20049;-75
2022/04/25 02:01:34;;;;;;;17.17;8.23;;;;;;;6.75;nan;99309.59;10351352;28;20145;-75
2022/04/25 02:06:36;;;;;;;18.00;8.45;;;;;;;6.75;nan;99314.78;10358304;28;20058;-75
2022/04/25 02:11:37;;;;;;;16.92;7.70;;;;;;;6.77;nan;99320.91;10350232;28;20072;-75
2022/04/25 02:16:39;;;;;;;16.30;7.75;;;;;;;6.78;nan;99322.63;10371118;28;20465;-75
2022/04/25 02:21:41;;;;;;;17.05;7.57;;;;;;;6.79;nan;99332.19;10369593;28;20061;-75
2022/04/25 02:26:42;;;;;;;16.35;7.70;;;;;;;6.74;nan;99313.06;10366613;28;20493;-75
2022/04/25 02:31:44;;;;;;;16.95;7.00;;;;;;;6.73;nan;99312.19;10377200;28;20069;-75
2022/04/25 02:36:46;;;;;;;18.38;7.35;;;;;;;6.78;nan;99329.56;10353694;28;20512;-75
2022/04/25 02:41:48;;;;;;;18.80;7.53;;;;;;;6.80;nan;99348.66;10369561;28;20045;-75
2022/04/25 02:46:49;;;;;;;17.70;7.65;;;;;;;6.82;nan;99353.03;10378107;28;20594;-75
2022/04/25 02:51:51;;;;;;;19.60;8.27;;;;;;;6.76;nan;99329.56;10366260;28;20041;-75
2022/04/25 02:56:53;;;;;;;20.13;9.40;;;;;;;6.80;nan;99346.06;10360307;28;20042;-74
2022/04/25 03:01:55;;;;;;;15.65;8.25;;;;;;;6.80;nan;99354.75;10361338;28;20540;-74
2022/04/25 03:06:56;;;;;;;15.07;7.72;;;;;;;6.71;nan;99323.41;10368244;28;20268;-75
2022/04/25 03:11:58;;;;;;;21.77;8.50;;;;;;;6.72;nan;99330.38;10366317;28;20073;-74
2022/04/25 03:17:01;;;;;;;19.30;8.68;;;;;;;6.69;nan;99320.81;10356074;28;20053;-74
2022/04/25 03:22:04;;;;;;;20.45;8.85;;;;;;;6.73;nan;99337.34;10366667;28;20037;-74
2022/04/25 03:27:10;;;;;;;17.88;7.72;;;;;;;6.68;nan;99318.19;10356593;28;20069;-74
2022/04/25 03:32:12;;;;;;;20.58;8.38;;;;;;;6.67;nan;99319.94;10354409;28;20041;-74
2022/04/25 03:37:13;;;;;;;16.45;8.20;;;;;;;6.67;nan;99326.88;10369054;28;20599;-74
2022/04/25 03:42:15;;;;;;;18.52;8.98;;;;;;;6.72;nan;99339.06;10359832;28;20737;-74
2022/04/25 03:47:17;;;;;;;19.13;10.63;;;;;;;6.68;nan;99333.78;10377030;28;20030;-74
2022/04/25 03:52:19;;;;;;;18.83;10.50;;;;;;;6.69;nan;99338.16;10372213;28;20046;-73
2022/04/25 03:57:20;;;;;;;21.58;11.45;;;;;;;6.66;nan;99328.56;10356544;28;20061;-74
2022/04/25 04:02:22;;;;;;;20.20;11.50;;;;;;;6.67;nan;99321.66;10359164;28;20052;-74
2022/04/25 04:07:24;;;;;;;16.90;10.68;;;;;;;6.64;nan;99317.31;10361908;28;20052;-74
2022/04/25 04:12:32;;;;;;;22.92;12.02;;;;;;;6.64;nan;99319.03;10369305;28;20497;-73
2022/04/25 04:17:34;;;;;;;18.88;10.48;;;;;;;6.64;nan;99326.84;10356433;28;20041;-73
2022/04/25 04:22:36;;;;;;;17.13;10.55;;;;;;;6.60;nan;99307.72;10357472;28;20046;-73
2022/04/25 04:27:42;;;;;;;18.35;11.05;;;;;;;6.59;nan;99307.69;10370105;28;20044;-73
2022/04/25 04:32:44;;;;;;;21.02;10.35;;;;;;;6.60;nan;99306.84;10372010;28;20133;-73
2022/04/25 04:37:45;;;;;;;13.55;8.35;;;;;;;6.60;nan;99310.31;10370198;28;20041;-74
2022/04/25 04:42:47;;;;;;;18.83;9.15;;;;;;;6.57;nan;99297.28;10351749;28;20069;-76
2022/04/25 04:47:49;;;;;;;15.85;8.43;;;;;;;6.45;nan;99259.03;10357075;28;20049;-75
2022/04/25 04:52:57;;;;;;;17.25;8.68;;;;;;;6.45;nan;99264.22;10350233;28;20054;-75
2022/04/25 04:57:58;;;;;;;15.80;8.82;;;;;;;6.46;nan;99265.97;10377872;28;20038;-76
2022/04/25 05:03:00;;;;;;;17.40;8.57;;;;;;;6.41;nan;99257.28;10343729;28;20065;-76
2022/04/25 05:08:02;;;;;;;18.98;9.38;;;;;;;6.42;nan;99259.00;10350755;28;20386;-77
2022/04/25 05:13:05;;;;;;;20.23;9.75;;;;;;;6.40;nan;99245.13;10362459;28;20060;-75
2022/04/25 05:18:07;;;;;;;16.08;7.72;;;;;;;6.40;nan;99252.94;10356033;28;20061;-75
2022/04/25 05:23:10;;;;;;;19.02;8.30;;;;;;;6.42;nan;99263.34;10354628;28;20045;-73
2022/04/25 05:28:11;;;;;;;18.92;8.18;;;;;;;6.41;nan;99261.59;10369798;28;20033;-75
2022/04/25 05:33:13;;;;;;;16.45;7.32;;;;;;;6.35;nan;99247.69;10335427;28;20048;-74
2022/04/25 05:38:15;;;;;;;13.98;6.40;;;;;;;6.35;nan;99239.88;10356153;28;20401;-75
2022/04/25 05:43:17;;;;;;;17.10;7.07;;;;;;;6.36;nan;99245.94;10373955;28;20425;-74
2022/04/25 05:53:38;;;;;;;18.70;7.68;;;;;;;6.39;nan;99255.53;10373237;28;20045;-72
2022/04/25 05:58:41;;;;;;;14.80;6.20;;;;;;;6.47;nan;99298.06;10371264;28;20060;-77
2022/04/25 06:03:42;;;;;;;13.90;6.05;;;;;;;6.50;nan;99314.56;10374832;28;20157;-76
2022/04/25 06:08:44;;;;;;;15.90;6.30;;;;;;;6.54;nan;99334.56;10375009;28;20030;-76
2022/04/25 06:13:47;;;;;;;17.27;6.35;;;;;;;6.60;nan;99357.13;10373197;28;20509;-76
2022/04/25 06:18:48;;;;;;;13.10;5.63;;;;;;;6.71;nan;99396.25;10361344;28;20112;-76
2022/04/25 06:23:50;;;;;;;11.38;4.93;;;;;;;6.65;nan;99373.69;10367020;28;20107;-76
2022/04/25 06:28:55;;;;;;;13.95;5.68;;;;;;;6.68;nan;99388.41;10351001;28;20315;-77
2022/04/25 06:33:57;;;;;;;14.35;5.78;;;;;;;6.85;nan;99457.13;10354410;28;20827;-73
2022/04/25 06:38:59;;;;;;;15.02;5.55;;;;;;;7.00;nan;99528.44;10372245;28;20041;-73
2022/04/25 06:44:01;;;;;;;11.02;5.00;;;;;;;7.13;nan;99566.75;10364781;28;20040;-75
2022/04/25 06:54:28;;;;;;;10.80;5.43;;;;;;;7.05;nan;99553.63;10366393;28;20056;-75
2022/04/25 06:59:30;;;;;;;11.10;5.00;;;;;;;7.06;nan;99555.38;10378949;28;20124;-75
2022/04/25 07:04:32;;;;;;;19.25;5.50;;;;;;;7.17;nan;99602.38;10376266;28;20608;-73
2022/04/25 07:09:34;;;;;;;11.40;5.30;;;;;;;7.16;nan;99600.63;10372953;28;20196;-74
2022/04/25 07:14:36;;;;;;;16.70;5.85;;;;;;;7.18;nan;99604.13;10340178;28;20057;-74
2022/04/25 07:19:41;;;;;;;15.02;6.47;;;;;;;7.29;nan;99645.91;10364923;28;20046;-74
2022/04/25 07:30:04;;;;;;;15.65;6.30;;;;;;;7.24;nan;99631.97;10360784;28;20128;-74
2022/04/25 07:35:09;;;;;;;17.15;6.25;;;;;;;7.31;nan;99665.03;10358318;28;20122;-73
2022/04/25 07:40:11;;;;;;;17.67;6.40;;;;;;;7.43;nan;99719.88;10366653;28;20053;-74
2022/04/25 07:45:13;;;;;;;13.10;5.70;;;;;;;7.47;nan;99728.59;10365423;28;20055;-71
2022/04/25 07:50:16;;;;;;;12.27;5.75;;;;;;;7.41;nan;99713.75;10370097;28;20049;-72
2022/04/25 07:55:18;;;;;;;12.82;6.00;;;;;;;7.50;nan;99739.06;10370623;28;20072;-74
2022/04/25 08:00:20;;;;;;;14.93;6.70;;;;;;;7.38;nan;99698.09;10364982;28;20077;-74
2022/04/25 08:05:22;;;;;;;11.02;5.85;;;;;;;7.48;nan;99743.38;10360514;28;20033;-75
2022/04/25 08:10:24;;;;;;;20.48;9.05;;;;;;;7.51;nan;99759.06;10357948;28;20409;-75
2022/04/25 08:20:47;;;;;;;19.00;8.93;;;;;;;7.67;nan;99816.56;10365682;28;20038;-74
2022/04/25 08:25:49;;;;;;;25.13;8.90;;;;;;;7.65;nan;99805.25;10361511;28;20045;-74
2022/04/25 08:30:52;;;;;;;22.67;12.00;;;;;;;7.83;nan;99882.81;10358164;28;20666;-74
2022/04/25 08:35:54;;;;;;;22.98;12.13;;;;;;;7.86;nan;99895.88;10364467;28;20163;-74
2022/04/25 08:40:57;;;;;;;20.67;11.38;;;;;;;7.93;nan;99929.00;10365291;28;20596;-74
2022/04/25 08:45:59;;;;;;;22.58;12.02;;;;;;;8.02;nan;99956.94;10365996;28;20053;-69
2022/04/25 08:51:02;;;;;;;19.23;10.63;;;;;;;8.21;nan;100047.63;10364690;28;20045;-65
2022/04/25 08:56:07;;;;;;;17.98;9.82;;;;;;;8.44;nan;100133.19;10363967;28;20045;-67
2022/04/25 09:01:10;;;;;;;15.93;9.07;;;;;;;8.47;nan;100148.91;10354995;28;20049;-68
2022/04/25 09:06:12;;;;;;;15.18;8.32;;;;;;;8.44;nan;100135.81;10359910;28;20124;-69
2022/04/25 09:16:33;;;;;;;14.43;8.15;;;;;;;9.40;nan;100537.75;10361101;28;20375;-70
2022/04/25 09:21:42;;;;;;;14.50;8.15;;;;;;;10.93;nan;101151.34;10364074;28;20044;-71
2022/04/25 09:26:44;;;;;;;15.13;8.00;;;;;;;10.69;nan;101062.66;10360961;28;20068;-70
2022/04/25 09:31:49;;;;;;;14.48;7.85;;;;;;;11.02;nan;101189.06;10376510;28;20037;-71
2022/04/25 09:36:51;;;;;;;13.85;7.85;;;;;;;12.01;nan;101596.13;10364294;28;20034;-71
2022/04/25 09:41:52;;;;;;;13.85;7.85;;;;;;;12.27;nan;101714.03;10361481;28;20397;-70
2022/04/25 09:46:58;;;;;;;13.55;8.80;;;;;;;11.74;nan;101494.88;10365134;28;20034;-71
2022/04/25 09:52:03;;;;;;;14.05;8.10;;;;;;;12.38;nan;101760.72;10358786;28;20052;-70
2022/04/25 09:57:05;;;;;;;13.88;9.00;;;;;;;12.51;nan;101811.81;10358937;28;21353;-70
2022/04/25 10:02:08;;;;;;;12.48;8.25;;;;;;;13.14;nan;102078.06;10359208;28;20049;-71
2022/04/25 10:07:10;;;;;;;18.65;9.10;;;;;;;13.14;nan;102071.91;10364254;28;20259;-70
2022/04/25 10:12:12;;;;;;;15.68;8.85;;;;;;;12.64;nan;101869.91;10360274;28;20068;-70
2022/04/25 10:17:15;;;;;;;15.13;8.70;;;;;;;12.70;nan;101891.09;10362678;28;20044;-72
2022/04/25 10:22:18;;;;;;;13.82;8.80;;;;;;;12.85;nan;101953.69;10361735;28;20046;-71
2022/04/25 10:27:27;;;;;;;15.50;10.38;;;;;;;13.32;nan;102145.19;10364222;28;20050;-71
2022/04/25 10:32:29;;;;;;;15.18;9.32;;;;;;;13.74;nan;102313.03;10374292;28;20049;-71
2022/04/25 10:37:34;;;;;;;14.80;9.60;;;;;;;14.13;nan;102486.22;10373306;28;20469;-72
2022/04/25 10:48:11;;;;;;;13.02;9.18;;;;;;;15.19;nan;102934.16;10363536;28;20052;-72
2022/04/25 10:53:13;;;;;;;15.40;9.30;;;;;;;15.70;nan;103158.50;10367708;28;20038;-71
2022/04/25 10:58:16;;;;;;;13.20;9.40;;;;;;;15.96;nan;103261.56;10371897;28;20038;-70
2022/04/25 11:03:20;;;;;;;11.82;8.32;;;;;;;16.26;nan;103388.56;10376414;28;20048;-70
2022/04/25 11:08:24;;;;;;;15.77;8.48;;;;;;;15.93;nan;103237.69;10373097;28;20044;-70
2022/04/25 11:14:01;;;;;;;20.58;9.32;;;;;;;16.03;nan;103274.16;10370246;28;20065;-69
2022/04/25 11:19:19;;;;;;;13.55;9.65;;;;;;;16.44;nan;103450.91;10372089;28;20061;-71
2022/04/25 11:24:42;;;;;;;15.60;7.93;;;;;;;16.57;nan;103505.09;10364825;28;20057;-71
2022/04/25 11:29:45;;;;;;;17.13;8.13;;;;;;;16.64;nan;103524.75;10365357;28;20041;-71
2022/04/25 11:34:47;;;;;;;13.52;7.55;;;;;;;16.53;nan;103476.75;10368292;28;20042;-71
2022/04/25 11:39:57;;;;;;;13.02;7.68;;;;;;;16.60;nan;103500.84;10363960;28;20224;-70
2022/04/25 11:45:00;;;;;;;14.10;7.82;;;;;;;16.34;nan;103382.66;10363416;28;20041;-70
2022/04/25 11:50:07;;;;;;;13.95;7.72;;;;;;;15.84;nan;103158.13;10371871;28;20041;-71
2022/04/25 11:55:09;;;;;;;11.90;7.50;;;;;;;15.82;nan;103143.94;10367316;28;20552;-71
2022/04/25 12:00:14;;;;;;;11.88;7.65;;;;;;;15.73;nan;103113.72;10366450;28;20124;-69
2022/04/25 12:05:31;;;;;;;12.38;7.50;;;;;;;15.92;nan;103176.84;10369200;28;20053;-69
2022/04/25 12:15:54;;;;;;;14.95;7.97;;;;;;;16.85;nan;103557.25;10348493;28;20045;-70
2022/04/25 12:20:59;;;;;;;11.98;6.82;;;;;;;16.39;nan;103374.06;10352329;28;21662;-70
2022/04/25 12:26:03;;;;;;;11.20;6.88;;;;;;;16.92;nan;103584.88;10356156;28;20053;-70
2022/04/25 12:31:07;;;;;;;12.88;7.38;;;;;;;16.55;nan;103425.69;10361423;28;20132;-70
2022/04/25 12:36:17;;;;;;;14.73;6.55;;;;;;;16.69;nan;103480.84;10359613;28;20132;-71
2022/04/25 12:41:29;;;;;;;9.65;6.68;;;;;;;16.49;nan;103392.88;10365383;28;20092;-70
2022/04/25 12:46:35;;;;;;;12.73;6.97;;;;;;;16.54;nan;103408.06;10364255;28;20076;-70
2022/04/25 12:51:55;;;;;;;11.85;6.43;;;;;;;16.30;nan;103299.69;10359708;28;20038;-69
2022/04/25 12:57:05;;;;;;;11.20;6.50;;;;;;;16.20;nan;103250.91;10360833;28;20042;-71
2022/04/25 13:02:14;;;;;;;11.77;6.68;;;;;;;15.89;nan;103119.53;10371033;28;20034;-70
2022/04/25 13:07:18;;;;;;;14.80;7.35;;;;;;;15.94;nan;103136.41;10368682;28;20042;-70
2022/04/25 13:12:19;;;;;;;13.13;6.95;;;;;;;16.29;nan;103275.84;10359711;28;20093;-69
2022/04/25 13:17:21;;;;;;;12.45;7.13;;;;;;;16.32;nan;103282.16;10364596;28;20527;-69
2022/04/25 13:22:23;;;;;;;16.73;6.80;;;;;;;16.47;nan;103337.28;10370883;28;20038;-69
2022/04/25 13:27:25;;;;;;;13.77;6.70;;;;;;;16.40;nan;103307.06;10369243;28;20046;-69
2022/04/25 13:32:26;;;;;;;25.60;7.75;;;;;;;16.33;nan;103270.69;10369856;28;20073;-69
2022/04/25 13:37:30;;;;;;;13.98;7.07;;;;;;;16.36;nan;103281.41;10367720;28;20042;-70
2022/04/25 13:42:32;;;;;;;16.55;7.30;;;;;;;16.39;nan;103292.09;10356176;28;20049;-69
2022/04/25 13:47:35;;;;;;;13.68;6.70;;;;;;;16.35;nan;103269.03;10368674;28;20065;-69
2022/04/25 13:52:37;;;;;;;14.70;7.25;;;;;;;16.34;nan;103256.63;10358068;28;20049;-69
2022/04/25 13:57:38;;;;;;;15.57;6.80;;;;;;;16.34;nan;103251.34;10362058;28;20069;-70
2022/04/25 14:08:01;;;;;;;16.52;7.30;;;;;;;16.35;nan;103246.94;10372810;28;20045;-69
2022/04/25 14:13:05;;;;;;;15.52;6.80;;;;;;;16.47;nan;103292.31;10375688;28;20081;-69
2022/04/25 14:18:09;;;;;;;13.82;6.45;;;;;;;16.38;nan;103253.25;10371330;28;20062;-68
2022/04/25 14:23:11;;;;;;;11.30;5.70;;;;;;;16.15;nan;103152.03;10376682;28;20050;-69
2022/04/25 14:28:13;;;;;;;10.48;5.93;;;;;;;16.07;nan;103117.44;10374004;28;20065;-69
2022/04/25 14:33:15;;;;;;;11.45;6.50;;;;;;;16.00;nan;103083.78;10384129;28;20044;-70
2022/04/25 14:38:22;;;;;;;12.57;5.68;;;;;;;16.08;nan;103111.31;10372883;28;20497;-69
2022/04/25 14:43:24;;;;;;;9.98;5.32;;;;;;;16.01;nan;103077.63;10381470;28;20050;-69
2022/04/25 14:48:26;;;;;;;11.57;5.25;;;;;;;16.03;nan;103078.59;10372039;28;20042;-69
2022/04/25 14:58:50;;;;;;;9.05;4.78;;;;;;;16.00;nan;103062.66;10374114;28;20088;-69
2022/04/25 15:03:52;;;;;;;9.05;4.70;;;;;;;15.95;nan;103040.44;10359107;28;20179;-69
2022/04/25 15:08:54;;;;;;;11.82;4.75;;;;;;;15.89;nan;103014.72;10362177;28;20042;-69
2022/04/25 15:13:55;;;;;;;8.30;4.38;;;;;;;15.77;nan;102952.69;10361103;28;20053;-70
2022/04/25 15:18:57;;;;;;;8.77;4.70;;;;;;;15.89;nan;103001.53;10351683;28;20045;-69
2022/04/25 15:23:59;;;;;;;10.15;4.50;;;;;;;15.88;nan;102996.19;10368507;28;20046;-70
2022/04/25 15:29:00;;;;;;;10.05;4.97;;;;;;;15.78;nan;102941.28;10368259;28;20059;-70
2022/04/25 15:34:02;;;;;;;8.18;4.45;;;;;;;16.16;nan;103094.81;10377073;28;20047;-69
2022/04/25 15:39:04;;;;;;;8.68;4.05;;;;;;;16.47;nan;103235.88;10369937;28;20033;-70
2022/04/25 15:44:06;;;;;;;9.77;3.97;;;;;;;16.46;nan;103224.41;10363947;28;20041;-70
2022/04/25 15:49:08;;;;;;;9.68;4.35;;;;;;;16.51;nan;103241.31;10373341;28;20054;-70
2022/04/25 15:59:31;;;;;;;8.93;3.85;;;;;;;16.18;nan;103099.31;10369876;28;20073;-70
2022/04/25 16:04:33;;;;;;;7.88;3.80;;;;;;;16.35;nan;103157.06;10374794;28;20819;-70
2022/04/25 16:09:35;;;;;;;11.80;3.60;;;;;;;16.30;nan;103138.41;10356146;28;20048;-71
2022/04/25 16:14:37;;;;;;;9.00;3.70;;;;;;;16.34;nan;103156.19;10364572;28;20387;-70
2022/04/25 16:19:41;;;;;;;8.32;3.47;;;;;;;16.50;nan;103226.31;10352952;28;20041;-71
2022/04/25 16:24:43;;;;;;;9.00;3.42;;;;;;;16.11;nan;103054.13;10364420;28;20042;-70
2022/04/25 16:29:44;;;;;;;8.85;3.47;;;;;;;16.03;nan;103020.47;10360042;28;20694;-71
2022/04/25 16:34:47;;;;;;;10.57;4.28;;;;;;;15.40;nan;102754.44;10354576;28;20501;-70
2022/04/25 16:39:49;;;;;;;9.45;3.72;;;;;;;14.75;nan;102472.16;10357831;28;20053;-72
2022/04/25 16:44:51;;;;;;;11.35;3.63;;;;;;;14.88;nan;102527.00;10359788;28;20045;-72
2022/04/25 16:49:53;;;;;;;8.55;3.50;;;;;;;15.52;nan;102790.88;10354460;28;20037;-72
2022/04/25 16:54:55;;;;;;;9.07;4.15;;;;;;;15.07;nan;102596.97;10356618;28;20095;-72
2022/04/25 16:59:57;;;;;;;9.85;3.53;;;;;;;14.30;nan;102289.06;10350730;28;20045;-71
2022/04/25 17:04:58;;;;;;;10.68;3.55;;;;;;;13.92;nan;102129.22;10355640;28;20049;-73
2022/04/25 17:10:00;;;;;;;10.90;3.25;;;;;;;13.55;nan;101986.16;10343445;28;20065;-71
2022/04/25 17:15:02;;;;;;;8.00;3.20;;;;;;;13.25;nan;101862.66;10355917;28;20037;-73
2022/04/25 17:20:05;;;;;;;8.52;2.90;;;;;;;13.06;nan;101779.81;10349461;28;20041;-71
2022/04/25 17:25:07;;;;;;;6.05;2.97;;;;;;;12.83;nan;101688.19;10345773;28;20041;-72
2022/04/25 17:30:09;;;;;;;9.63;3.75;;;;;;;12.58;nan;101580.78;10348872;28;20038;-70
2022/04/25 17:41:07;;;;;;;8.95;3.00;;;;;;;12.40;nan;101506.00;10360288;28;20033;-70
